createdAt,value
2018-08-12T00:00:30.358Z,19.10
2018-08-12T00:03:16.040Z,19.10
2018-08-12T00:05:51.691Z,19.20
2018-08-12T00:08:36.599Z,19.10
2018-08-12T00:11:11.893Z,19.00
2018-08-12T00:14:02.599Z,19.00
2018-08-12T00:16:45.078Z,18.90
2018-08-12T00:22:21.559Z,18.90
2018-08-12T00:25:05.161Z,18.80
2018-08-12T00:33:05.588Z,18.90
2018-08-12T00:35:45.232Z,18.90
2018-08-12T00:41:07.684Z,18.80
2018-08-12T00:43:54.575Z,18.80
2018-08-12T00:46:36.461Z,18.70
2018-08-12T00:49:26.850Z,18.50
2018-08-12T00:54:52.803Z,18.40
2018-08-12T00:57:49.433Z,18.40
2018-08-12T01:03:14.234Z,18.40
2018-08-12T01:06:05.055Z,18.40
2018-08-12T01:08:42.367Z,18.40
2018-08-12T01:11:23.082Z,18.30
2018-08-12T01:14:01.583Z,18.10
2018-08-12T01:16:46.607Z,18.00
2018-08-12T01:22:46.170Z,18.00
2018-08-12T01:35:46.223Z,17.60
2018-08-12T01:38:42.661Z,17.40
2018-08-12T01:41:40.628Z,17.40
2018-08-12T01:44:26.420Z,17.30
2018-08-12T01:47:33.816Z,17.30
2018-08-12T01:50:20.534Z,17.30
2018-08-12T01:53:12.345Z,17.50
2018-08-12T01:55:57.316Z,17.40
2018-08-12T02:01:29.695Z,17.30
2018-08-12T02:06:52.883Z,17.20
2018-08-12T02:09:36.620Z,17.20
2018-08-12T02:12:20.873Z,17.20
2018-08-12T02:17:53.665Z,17.10
2018-08-12T02:23:51.193Z,17.10
2018-08-12T02:32:35.128Z,16.90
2018-08-12T02:35:51.541Z,17.10
2018-08-12T02:42:01.915Z,17.00
2018-08-12T02:48:22.088Z,17.00
2018-08-12T02:50:59.238Z,17.20
2018-08-12T02:56:52.345Z,17.40
2018-08-12T02:59:51.208Z,17.40
2018-08-12T03:02:35.944Z,17.10
2018-08-12T03:05:24.085Z,17.00
2018-08-12T03:08:03.553Z,16.90
2018-08-12T03:10:49.368Z,16.90
2018-08-12T03:13:50.250Z,16.80
2018-08-12T03:16:38.304Z,16.80
2018-08-12T03:22:38.525Z,17.00
2018-08-12T03:25:31.309Z,17.20
2018-08-12T03:31:14.477Z,17.40
2018-08-12T03:34:16.032Z,17.40
2018-08-12T03:40:22.491Z,17.00
2018-08-12T03:46:17.721Z,16.80
2018-08-12T03:49:05.384Z,16.60
2018-08-12T03:51:38.444Z,16.60
2018-08-12T03:54:28.159Z,16.50
2018-08-12T03:57:21.014Z,16.40
2018-08-12T04:03:07.408Z,16.30
2018-08-12T04:19:13.222Z,16.10
2018-08-12T04:22:11.710Z,16.10
2018-08-12T04:24:55.278Z,16.10
2018-08-12T04:28:01.649Z,16.10
2018-08-12T04:33:41.054Z,16.20
2018-08-12T04:36:16.504Z,16.40
2018-08-12T04:38:51.780Z,16.60
2018-08-12T04:50:40.683Z,16.90
2018-08-12T04:53:11.019Z,16.90
2018-08-12T05:00:11.359Z,16.90
2018-08-12T05:03:42.174Z,16.70
2018-08-12T05:06:38.330Z,16.80
2018-08-12T05:15:02.581Z,17.10
2018-08-12T05:20:35.151Z,17.30
2018-08-12T05:23:12.540Z,17.50
2018-08-12T05:25:51.917Z,17.40
2018-08-12T05:28:30.192Z,17.30
2018-08-12T05:31:07.454Z,17.30
2018-08-12T05:33:50.954Z,17.20
2018-08-12T05:36:31.475Z,17.30
2018-08-12T05:42:37.691Z,18.10
2018-08-12T05:45:14.339Z,19.40
2018-08-12T05:47:59.267Z,20.20
2018-08-12T05:50:42.364Z,20.70
2018-08-12T05:53:29.214Z,21.30
2018-08-12T05:56:02.088Z,21.60
2018-08-12T05:58:31.496Z,22.50
2018-08-12T06:01:00.656Z,23.20
2018-08-12T06:03:31.793Z,23.20
2018-08-12T06:06:01.220Z,23.70
2018-08-12T06:08:32.196Z,24.10
2018-08-12T06:11:07.419Z,23.80
2018-08-12T06:13:36.477Z,23.60
2018-08-12T06:16:06.590Z,24.00
2018-08-12T06:18:35.892Z,24.70
2018-08-12T06:21:06.525Z,25.70
2018-08-12T06:23:36.134Z,25.80
2018-08-12T06:26:06.616Z,25.90
2018-08-12T06:28:43.616Z,26.00
2018-08-12T06:31:19.027Z,26.30
2018-08-12T06:33:49.675Z,27.00
2018-08-12T06:36:19.244Z,27.30
2018-08-12T06:38:48.738Z,27.80
2018-08-12T06:41:18.357Z,27.50
2018-08-12T06:43:48.971Z,27.60
2018-08-12T06:46:18.224Z,27.80
2018-08-12T06:48:48.854Z,28.50
2018-08-12T06:51:18.100Z,29.10
2018-08-12T06:53:49.448Z,29.30
2018-08-12T06:56:19.884Z,29.00
2018-08-12T06:58:48.946Z,28.70
2018-08-12T07:01:18.510Z,28.60
2018-08-12T07:03:48.491Z,28.60
2018-08-12T07:06:18.045Z,29.00
2018-08-12T07:08:48.249Z,30.10
2018-08-12T07:11:26.143Z,30.40
2018-08-12T07:13:59.517Z,30.70
2018-08-12T07:16:28.538Z,30.70
2018-08-12T07:18:59.052Z,30.70
2018-08-12T07:21:30.720Z,30.70
2018-08-12T07:24:01.583Z,30.60
2018-08-12T07:26:31.263Z,30.80
2018-08-12T07:29:03.054Z,30.90
2018-08-12T07:31:32.876Z,31.40
2018-08-12T07:34:04.305Z,31.80
2018-08-12T07:36:33.588Z,31.90
2018-08-12T07:39:07.261Z,31.60
2018-08-12T07:41:36.821Z,31.30
2018-08-12T07:44:08.574Z,31.30
2018-08-12T07:46:38.541Z,31.90
2018-08-12T07:49:08.563Z,32.00
2018-08-12T07:51:38.011Z,31.90
2018-08-12T07:54:08.585Z,32.30
2018-08-12T07:56:38.495Z,32.00
2018-08-12T07:59:08.417Z,30.70
2018-08-12T08:01:38.628Z,30.90
2018-08-12T08:04:10.249Z,31.40
2018-08-12T08:06:39.932Z,31.90
2018-08-12T08:09:22.550Z,32.10
2018-08-12T08:11:53.437Z,32.60
2018-08-12T08:14:23.058Z,32.70
2018-08-12T08:16:53.491Z,33.10
2018-08-12T08:19:24.123Z,33.60
2018-08-12T08:21:55.462Z,33.90
2018-08-12T08:24:28.287Z,34.30
2018-08-12T08:26:58.245Z,34.60
2018-08-12T08:29:27.258Z,34.70
2018-08-12T08:31:57.425Z,34.50
2018-08-12T08:34:31.321Z,34.90
2018-08-12T08:37:02.370Z,35.40
2018-08-12T08:39:34.213Z,35.10
2018-08-12T08:42:03.303Z,34.50
2018-08-12T08:44:33.163Z,33.90
2018-08-12T08:47:03.818Z,34.40
2018-08-12T08:49:34.369Z,34.90
2018-08-12T08:52:04.514Z,35.40
2018-08-12T08:54:33.969Z,35.50
2018-08-12T08:57:03.527Z,35.00
2018-08-12T08:59:34.916Z,34.60
2018-08-12T09:02:05.022Z,35.20
2018-08-12T09:04:37.018Z,35.40
2018-08-12T09:07:08.509Z,35.50
2018-08-12T09:09:38.036Z,36.10
2018-08-12T09:12:08.667Z,36.00
2018-08-12T09:14:38.210Z,36.00
2018-08-12T09:17:12.623Z,36.00
2018-08-12T09:19:46.191Z,35.90
2018-08-12T09:22:16.516Z,35.60
2018-08-12T09:24:56.999Z,35.50
2018-08-12T09:27:30.375Z,35.40
2018-08-12T09:30:01.438Z,35.60
2018-08-12T09:32:34.195Z,35.60
2018-08-12T09:35:15.581Z,36.50
2018-08-12T09:37:47.338Z,36.60
2018-08-12T09:40:23.536Z,35.90
2018-08-12T09:43:02.571Z,35.50
2018-08-12T09:45:34.101Z,35.70
2018-08-12T09:48:07.382Z,35.40
2018-08-12T09:50:38.830Z,35.20
2018-08-12T09:53:08.642Z,35.20
2018-08-12T09:55:41.437Z,34.90
2018-08-12T09:58:14.212Z,34.90
2018-08-12T10:00:45.082Z,34.90
2018-08-12T10:03:17.717Z,34.60
2018-08-12T10:05:47.834Z,34.20
2018-08-12T10:08:24.608Z,33.90
2018-08-12T10:10:54.954Z,33.50
2018-08-12T10:13:24.952Z,32.60
2018-08-12T10:15:55.728Z,31.70
2018-08-12T10:18:25.673Z,31.40
2018-08-12T10:20:56.562Z,31.20
2018-08-12T10:23:33.041Z,31.10
2018-08-12T10:26:09.900Z,30.60
2018-08-12T10:28:39.054Z,30.10
2018-08-12T10:31:08.293Z,30.20
2018-08-12T10:33:37.832Z,30.30
2018-08-12T10:36:11.982Z,30.60
2018-08-12T10:39:14.755Z,30.80
2018-08-12T10:41:45.098Z,31.10
2018-08-12T10:44:15.667Z,31.20
2018-08-12T10:46:46.476Z,31.30
2018-08-12T10:49:16.599Z,31.30
2018-08-12T10:51:48.015Z,31.00
2018-08-12T10:54:17.883Z,30.50
2018-08-12T10:56:48.273Z,30.20
2018-08-12T10:59:17.735Z,30.50
2018-08-12T11:01:48.613Z,30.60
2018-08-12T11:04:17.913Z,30.70
2018-08-12T11:10:20.662Z,31.10
2018-08-12T11:12:50.923Z,31.20
2018-08-12T11:15:21.356Z,30.50
2018-08-12T11:17:50.914Z,30.30
2018-08-12T11:20:20.628Z,30.50
2018-08-12T11:22:49.859Z,30.70
2018-08-12T11:25:20.513Z,30.70
2018-08-12T11:27:50.558Z,30.70
2018-08-12T11:30:21.573Z,31.00
2018-08-12T11:34:47.105Z,31.40
2018-08-12T11:37:18.345Z,31.60
2018-08-12T11:39:47.769Z,31.80
2018-08-12T11:42:18.917Z,31.80
2018-08-12T11:44:48.089Z,31.60
2018-08-12T11:47:18.960Z,31.60
2018-08-12T11:49:47.870Z,31.60
2018-08-12T11:52:18.957Z,31.30
2018-08-12T11:54:53.771Z,30.40
2018-08-12T11:57:24.682Z,30.10
2018-08-12T11:59:55.819Z,30.30
2018-08-12T12:02:25.481Z,30.70
2018-08-12T12:05:04.591Z,31.00
2018-08-12T12:07:35.629Z,31.10
2018-08-12T12:10:08.274Z,31.40
2018-08-12T12:12:39.311Z,31.70
2018-08-12T12:15:11.011Z,32.00
2018-08-12T12:17:43.006Z,31.70
2018-08-12T12:20:13.525Z,31.10
2018-08-12T12:22:45.228Z,31.00
2018-08-12T12:25:17.793Z,30.80
2018-08-12T12:27:47.404Z,30.50
2018-08-12T12:30:18.099Z,30.50
2018-08-12T12:32:48.767Z,30.50
2018-08-12T12:35:18.751Z,30.20
2018-08-12T12:37:48.334Z,30.30
2018-08-12T12:40:19.745Z,30.30
2018-08-12T12:42:49.481Z,30.30
2018-08-12T12:45:22.363Z,30.50
2018-08-12T12:50:36.001Z,30.80
2018-08-12T12:53:10.751Z,31.30
2018-08-12T12:55:41.429Z,31.60
2018-08-12T12:58:10.789Z,31.80
2018-08-12T13:00:41.453Z,32.00
2018-08-12T13:03:13.162Z,32.10
2018-08-12T13:05:42.980Z,32.00
2018-08-12T13:08:12.652Z,31.70
2018-08-12T13:10:43.072Z,31.70
2018-08-12T13:13:13.578Z,31.30
2018-08-12T13:15:43.048Z,31.30
2018-08-12T13:18:13.128Z,31.30
2018-08-12T13:20:43.289Z,31.30
2018-08-12T13:23:13.524Z,31.40
2018-08-12T13:25:43.126Z,31.50
2018-08-12T13:28:13.238Z,31.40
2018-08-12T13:30:44.235Z,31.60
2018-08-12T13:33:15.339Z,31.90
2018-08-12T13:35:44.578Z,32.00
2018-08-12T13:38:16.541Z,32.20
2018-08-12T13:40:45.955Z,32.30
2018-08-12T13:43:22.581Z,32.10
2018-08-12T13:45:52.395Z,31.80
2018-08-12T13:48:21.721Z,31.60
2018-08-12T13:50:52.081Z,31.80
2018-08-12T13:53:21.296Z,31.80
2018-08-12T13:55:52.185Z,32.00
2018-08-12T13:58:21.072Z,31.90
2018-08-12T14:00:49.895Z,31.90
2018-08-12T14:03:22.032Z,31.80
2018-08-12T14:05:52.542Z,31.80
2018-08-12T14:08:22.020Z,31.80
2018-08-12T14:10:51.904Z,31.90
2018-08-12T14:13:22.023Z,31.80
2018-08-12T14:15:53.049Z,31.90
2018-08-12T14:18:26.985Z,31.70
2018-08-12T14:21:13.971Z,31.50
2018-08-12T14:23:44.152Z,31.20
2018-08-12T14:26:17.479Z,31.10
2018-08-12T14:28:48.218Z,31.30
2018-08-12T14:31:19.128Z,31.50
2018-08-12T14:33:52.514Z,31.50
2018-08-12T14:36:25.982Z,31.60
2018-08-12T14:39:02.508Z,31.20
2018-08-12T14:41:34.525Z,31.00
2018-08-12T14:44:09.422Z,31.10
2018-08-12T14:46:43.072Z,31.10
2018-08-12T14:49:59.475Z,31.10
2018-08-12T14:52:54.521Z,31.10
2018-08-12T14:55:26.280Z,31.10
2018-08-12T14:59:36.092Z,30.50
2018-08-12T15:02:06.094Z,30.20
2018-08-12T15:04:37.779Z,30.10
2018-08-12T15:07:11.446Z,29.90
2018-08-12T15:09:44.758Z,29.70
2018-08-12T15:12:21.113Z,29.70
2018-08-12T15:14:51.832Z,29.60
2018-08-12T15:17:22.036Z,29.50
2018-08-12T15:19:53.528Z,29.50
2018-08-12T15:22:25.520Z,29.50
2018-08-12T15:24:56.010Z,29.40
2018-08-12T15:27:28.902Z,29.40
2018-08-12T15:30:06.603Z,29.40
2018-08-12T15:32:46.854Z,29.40
2018-08-12T15:35:16.496Z,29.50
2018-08-12T15:37:52.449Z,29.60
2018-08-12T15:40:41.282Z,29.80
2018-08-12T15:43:12.389Z,29.70
2018-08-12T15:45:43.043Z,29.60
2018-08-12T15:48:31.806Z,29.70
2018-08-12T15:51:55.284Z,29.80
2018-08-12T15:54:32.574Z,30.00
2018-08-12T15:57:44.260Z,29.80
2018-08-12T16:00:18.371Z,29.70
2018-08-12T16:02:53.401Z,29.80
2018-08-12T16:05:23.141Z,29.90
2018-08-12T16:07:55.005Z,29.90
2018-08-12T16:10:27.895Z,29.80
2018-08-12T16:12:57.051Z,29.60
2018-08-12T16:15:29.212Z,29.40
2018-08-12T16:18:02.118Z,29.20
2018-08-12T16:20:32.199Z,29.20
2018-08-12T16:23:01.648Z,29.20
2018-08-12T16:25:31.915Z,29.30
2018-08-12T16:28:02.162Z,29.40
2018-08-12T16:30:33.012Z,29.40
2018-08-12T16:33:04.795Z,29.40
2018-08-12T16:35:33.899Z,29.40
2018-08-12T16:38:03.565Z,29.40
2018-08-12T16:43:56.297Z,29.50
2018-08-12T16:46:27.137Z,29.60
2018-08-12T16:48:56.951Z,29.50
2018-08-12T16:51:28.661Z,29.50
2018-08-12T16:53:59.029Z,29.40
2018-08-12T16:56:30.062Z,29.40
2018-08-12T16:59:01.934Z,29.40
2018-08-12T17:01:33.065Z,29.20
2018-08-12T17:04:04.593Z,29.20
2018-08-12T17:06:34.633Z,29.20
2018-08-12T17:09:04.613Z,29.10
2018-08-12T17:11:34.156Z,29.10
2018-08-12T17:14:05.259Z,29.10
2018-08-12T17:16:36.195Z,29.00
2018-08-12T17:19:08.026Z,29.00
2018-08-12T17:21:39.204Z,29.00
2018-08-12T17:24:08.567Z,29.00
2018-08-12T17:26:39.685Z,28.90
2018-08-12T17:29:13.965Z,28.90
2018-08-12T17:31:43.525Z,29.00
2018-08-12T17:34:13.173Z,28.90
2018-08-12T17:36:42.672Z,28.80
2018-08-12T17:39:14.015Z,28.80
2018-08-12T17:41:45.470Z,28.70
2018-08-12T17:44:19.055Z,28.70
2018-08-12T17:46:53.163Z,28.60
2018-08-12T17:49:23.925Z,28.60
2018-08-12T17:51:57.085Z,28.50
2018-08-12T17:54:27.621Z,28.50
2018-08-12T17:56:59.299Z,28.50
2018-08-12T17:59:32.491Z,28.40
2018-08-12T18:02:04.605Z,28.30
2018-08-12T18:04:36.542Z,28.20
2018-08-12T18:07:15.154Z,28.20
2018-08-12T18:09:47.148Z,28.10
2018-08-12T18:12:17.523Z,28.00
2018-08-12T18:14:48.234Z,27.90
2018-08-12T18:17:21.354Z,27.80
2018-08-12T18:19:51.457Z,27.80
2018-08-12T18:22:21.933Z,27.70
2018-08-12T18:24:57.664Z,27.60
2018-08-12T18:27:27.177Z,27.50
2018-08-12T18:30:01.696Z,27.40
2018-08-12T18:32:31.091Z,27.20
2018-08-12T18:35:20.587Z,27.20
2018-08-12T18:37:50.906Z,27.00
2018-08-12T18:40:20.715Z,26.90
2018-08-12T18:42:57.598Z,26.70
2018-08-12T18:45:28.837Z,26.60
2018-08-12T23:38:15.935Z,26.70
2018-08-12T23:40:46.081Z,22.10
2018-08-12T23:43:16.283Z,21.90
2018-08-12T23:46:16.182Z,21.80
2018-08-12T23:48:45.615Z,21.80
2018-08-12T23:51:16.145Z,21.70
2018-08-12T23:53:47.222Z,21.60
2018-08-12T23:56:17.038Z,21.50
2018-08-12T23:58:46.078Z,21.50
